createdAt,value
2023-04-02T00:01:03.646Z,2.3
2023-04-02T00:02:12.232Z,2.2
2023-04-02T00:03:20.726Z,2.2
2023-04-02T00:04:28.929Z,2.2
2023-04-02T00:05:37.770Z,2.3
2023-04-02T00:06:45.903Z,2.3
2023-04-02T00:07:54.231Z,2.3
2023-04-02T00:09:02.804Z,2.1
2023-04-02T00:10:11.193Z,2.1
2023-04-02T00:11:19.515Z,2.1
2023-04-02T00:12:28.091Z,2.6
2023-04-02T00:13:36.442Z,2.6
2023-04-02T00:14:44.829Z,2.6
2023-04-02T00:15:53.376Z,2.9
2023-04-02T00:17:01.710Z,2.9
2023-04-02T00:18:10.091Z,2.9
2023-04-02T00:19:18.695Z,2.8
2023-04-02T00:20:26.989Z,2.8
2023-04-02T00:21:35.369Z,2.8
2023-04-02T00:22:43.893Z,2.7
2023-04-02T00:23:52.242Z,2.7
2023-04-02T00:25:00.585Z,2.7
2023-04-02T00:26:09.168Z,1.5
2023-04-02T00:27:17.487Z,1.5
2023-04-02T00:28:25.828Z,1.5
2023-04-02T00:29:34.385Z,0.6
2023-04-02T00:30:42.756Z,0.6
2023-04-02T00:31:51.104Z,0.6
2023-04-02T00:32:59.702Z,0.5
2023-04-02T00:34:08.008Z,0.5
2023-04-02T00:35:16.347Z,0.5
2023-04-02T00:36:24.916Z,0.3
2023-04-02T00:37:33.252Z,0.3
2023-04-02T00:38:41.617Z,0.3
2023-04-02T00:39:50.200Z,0.3
2023-04-02T00:40:58.534Z,0.3
2023-04-02T00:42:06.911Z,0.3
2023-04-02T00:43:15.456Z,0.2
2023-04-02T00:44:23.847Z,0.2
2023-04-02T00:45:32.435Z,0.2
2023-04-02T00:46:40.709Z,0.1
2023-04-02T00:47:49.095Z,0.1
2023-04-02T00:48:57.430Z,0.1
2023-04-02T00:50:05.990Z,0.2
2023-04-02T00:51:14.315Z,0.2
2023-04-02T00:52:22.680Z,0.2
2023-04-02T00:53:31.222Z,0.1
2023-04-02T00:54:39.577Z,0.1
2023-04-02T00:55:47.941Z,0.1
2023-04-02T00:56:56.605Z,0.2
2023-04-02T00:58:04.955Z,0.2
2023-04-02T00:59:13.188Z,0.2
2023-04-02T01:00:21.803Z,0.1
2023-04-02T01:01:30.174Z,0.1
2023-04-02T01:02:38.605Z,0.1
2023-04-02T01:03:47.059Z,0.2
2023-04-02T01:04:55.396Z,0.2
2023-04-02T01:06:03.777Z,0.2
2023-04-02T01:07:12.334Z,0.2
2023-04-02T01:08:20.687Z,0.2
2023-04-02T01:09:29.045Z,0.2
2023-04-02T01:10:37.583Z,0.2
2023-04-02T01:11:45.936Z,0.2
2023-04-02T01:12:54.302Z,0.2
2023-04-02T01:14:02.887Z,0.5
2023-04-02T01:15:11.205Z,0.5
2023-04-02T01:16:19.607Z,0.5
2023-04-02T01:17:28.130Z,0.7
2023-04-02T01:18:36.463Z,0.7
2023-04-02T01:19:44.815Z,0.7
2023-04-02T01:20:53.371Z,0.9
2023-04-02T01:22:01.713Z,0.9
2023-04-02T01:23:10.084Z,0.9
2023-04-02T01:24:18.637Z,0.6
2023-04-02T01:25:26.976Z,0.6
2023-04-02T01:26:35.320Z,0.6
2023-04-02T01:27:43.880Z,0.8
2023-04-02T01:28:52.253Z,0.8
2023-04-02T01:30:00.628Z,0.8
2023-04-02T01:31:09.149Z,0.4
2023-04-02T01:32:17.483Z,0.4
2023-04-02T01:33:25.836Z,0.4
2023-04-02T01:34:34.392Z,0.4
2023-04-02T01:35:42.751Z,0.4
2023-04-02T01:36:51.082Z,0.4
2023-04-02T01:37:59.618Z,0.3
2023-04-02T01:39:08.012Z,0.3
2023-04-02T01:40:16.363Z,0.3
2023-04-02T01:41:24.959Z,0.5
2023-04-02T01:42:33.354Z,0.5
2023-04-02T01:43:41.706Z,0.5
2023-04-02T01:44:50.278Z,0.4
2023-04-02T01:45:58.679Z,0.4
2023-04-02T01:47:07.012Z,0.4
2023-04-02T01:48:15.619Z,0.4
2023-04-02T01:49:24.010Z,0.4
2023-04-02T01:50:32.328Z,0.4
2023-04-02T01:51:40.898Z,0.5
2023-04-02T01:52:49.264Z,0.5
2023-04-02T01:53:57.617Z,0.5
2023-04-02T01:55:06.177Z,0.4
2023-04-02T01:56:14.556Z,0.4
2023-04-02T01:57:22.983Z,0.4
2023-04-02T01:58:31.513Z,0.4
2023-04-02T01:59:39.906Z,0.4
2023-04-02T02:00:48.239Z,0.4
2023-04-02T02:01:56.814Z,0.5
2023-04-02T02:03:05.154Z,0.5
2023-04-02T02:04:13.475Z,0.5
2023-04-02T02:05:22.058Z,0.5
2023-04-02T02:06:30.428Z,0.5
2023-04-02T02:07:38.782Z,0.5
2023-04-02T02:08:47.336Z,0.6
2023-04-02T02:09:55.693Z,0.6
2023-04-02T02:11:04.049Z,0.6
2023-04-02T02:12:12.584Z,0.5
2023-04-02T02:13:20.961Z,0.5
2023-04-02T02:14:29.299Z,0.5
2023-04-02T02:15:37.867Z,0.8
2023-04-02T02:16:46.265Z,0.8
2023-04-02T02:17:54.650Z,0.8
2023-04-02T02:19:03.206Z,0.8
2023-04-02T02:20:11.508Z,0.8
2023-04-02T02:21:19.855Z,0.8
2023-04-02T02:22:28.406Z,1
2023-04-02T02:23:36.771Z,1
2023-04-02T02:24:45.145Z,1
2023-04-02T02:25:53.687Z,0.9
2023-04-02T02:27:02.020Z,0.9
2023-04-02T02:28:10.398Z,0.9
2023-04-02T02:29:18.939Z,1
2023-04-02T02:30:27.295Z,1
2023-04-02T02:31:35.674Z,1
2023-04-02T02:32:44.257Z,0.9
2023-04-02T02:33:52.610Z,0.9
2023-04-02T02:35:00.944Z,0.9
2023-04-02T02:36:09.581Z,1.1
2023-04-02T02:37:17.846Z,1.1
2023-04-02T02:38:26.219Z,1.1
2023-04-02T02:39:34.758Z,1.1
2023-04-02T02:40:43.095Z,1.1
2023-04-02T02:41:51.461Z,1.1
2023-04-02T02:43:00.016Z,0.8
2023-04-02T02:44:08.361Z,0.8
2023-04-02T02:45:16.727Z,0.8
2023-04-02T02:46:25.287Z,0.8
2023-04-02T02:47:33.646Z,0.8
2023-04-02T02:48:41.987Z,0.8
2023-04-02T02:49:50.595Z,0.8
2023-04-02T02:50:58.904Z,0.8
2023-04-02T02:52:07.274Z,0.8
2023-04-02T02:53:15.854Z,0.7
2023-04-02T02:54:24.187Z,0.7
2023-04-02T02:55:32.958Z,0.7
2023-04-02T02:56:41.108Z,0.9
2023-04-02T02:57:49.440Z,0.9
2023-04-02T02:58:57.798Z,0.9
2023-04-02T03:00:06.340Z,0.8
2023-04-02T03:01:14.694Z,0.8
2023-04-02T03:02:23.069Z,0.8
2023-04-02T03:03:31.694Z,1.1
2023-04-02T03:04:39.898Z,1.1
2023-04-02T03:05:48.257Z,1.1
2023-04-02T03:06:56.769Z,1
2023-04-02T03:08:05.129Z,1
2023-04-02T03:09:13.513Z,1
2023-04-02T03:10:22.032Z,0.9
2023-04-02T03:11:30.397Z,0.9
2023-04-02T03:12:38.742Z,0.9
2023-04-02T03:13:47.319Z,0.8
2023-04-02T03:14:55.673Z,0.8
2023-04-02T03:16:04.052Z,0.8
2023-04-02T03:17:12.544Z,0.7
2023-04-02T03:18:20.881Z,0.7
2023-04-02T03:19:29.245Z,0.7
2023-04-02T03:20:37.801Z,0.5
2023-04-02T03:21:46.164Z,0.5
2023-04-02T03:22:54.504Z,0.5
2023-04-02T03:24:03.058Z,0.6
2023-04-02T03:25:11.415Z,0.6
2023-04-02T03:26:19.736Z,0.6
2023-04-02T03:27:28.292Z,0.5
2023-04-02T03:28:36.653Z,0.5
2023-04-02T03:29:44.998Z,0.5
2023-04-02T03:30:53.584Z,0.5
2023-04-02T03:32:01.883Z,0.5
2023-04-02T03:33:10.222Z,0.5
2023-04-02T03:34:18.776Z,0.6
2023-04-02T03:35:27.111Z,0.6
2023-04-02T03:36:35.457Z,0.6
2023-04-02T03:37:44.026Z,0.5
2023-04-02T03:38:52.367Z,0.5
2023-04-02T03:40:00.714Z,0.5
2023-04-02T03:41:09.271Z,0.7
2023-04-02T03:42:17.646Z,0.7
2023-04-02T03:43:25.982Z,0.7
2023-04-02T03:44:34.519Z,0.6
2023-04-02T03:45:42.891Z,0.6
2023-04-02T03:46:51.252Z,0.6
2023-04-02T03:47:59.808Z,0.6
2023-04-02T03:49:08.125Z,0.6
2023-04-02T03:50:16.463Z,0.6
2023-04-02T03:51:25.028Z,0.7
2023-04-02T03:52:33.361Z,0.7
2023-04-02T03:53:41.775Z,0.7
2023-04-02T03:54:53.459Z,0.7
2023-04-02T03:55:58.625Z,0.7
2023-04-02T03:57:06.991Z,0.7
2023-04-02T03:58:15.548Z,0.9
2023-04-02T03:59:23.870Z,0.9
2023-04-02T04:00:32.245Z,0.9
2023-04-02T04:01:40.747Z,0.8
2023-04-02T04:02:49.128Z,0.8
2023-04-02T04:03:57.506Z,0.8
2023-04-02T04:05:06.035Z,0.8
2023-04-02T04:06:14.394Z,0.8
2023-04-02T04:07:22.743Z,0.8
2023-04-02T04:08:31.296Z,0.9
2023-04-02T04:09:39.666Z,0.9
2023-04-02T04:10:48.001Z,0.9
2023-04-02T04:11:56.521Z,1
2023-04-02T04:13:04.898Z,1
2023-04-02T04:14:13.247Z,1
2023-04-02T04:15:21.794Z,1.7
2023-04-02T04:16:30.200Z,1.7
2023-04-02T04:17:38.575Z,1.7
2023-04-02T04:18:47.074Z,1
2023-04-02T04:19:55.460Z,1
2023-04-02T04:21:03.775Z,1
2023-04-02T04:22:12.331Z,0.9
2023-04-02T04:23:20.688Z,0.9
2023-04-02T04:24:29.040Z,0.9
2023-04-02T04:25:37.794Z,0.8
2023-04-02T04:26:45.933Z,0.8
2023-04-02T04:27:54.286Z,0.8
2023-04-02T04:29:02.857Z,0.8
2023-04-02T04:30:11.193Z,0.8
2023-04-02T04:31:19.550Z,0.8
2023-04-02T04:32:28.083Z,1
2023-04-02T04:33:36.444Z,1
2023-04-02T04:34:44.785Z,1
2023-04-02T04:35:53.374Z,1
2023-04-02T04:37:01.724Z,1
2023-04-02T04:38:10.066Z,1
2023-04-02T04:39:18.637Z,1.1
2023-04-02T04:40:27.090Z,1.1
2023-04-02T04:41:35.352Z,1.1
2023-04-02T04:42:43.886Z,1
2023-04-02T04:43:52.237Z,1
2023-04-02T04:45:00.591Z,1
2023-04-02T04:46:09.188Z,0.8
2023-04-02T04:47:17.482Z,0.8
2023-04-02T04:48:25.852Z,0.8
2023-04-02T04:49:34.389Z,0.9
2023-04-02T04:50:42.751Z,0.9
2023-04-02T04:51:51.107Z,0.9
2023-04-02T04:52:59.688Z,0.9
2023-04-02T04:54:08.020Z,0.9
2023-04-02T04:55:16.360Z,0.9
2023-04-02T04:56:24.911Z,1.2
2023-04-02T04:57:33.285Z,1.2
2023-04-02T04:58:41.637Z,1.2
2023-04-02T04:59:50.175Z,1
2023-04-02T05:00:58.543Z,1
2023-04-02T05:02:06.889Z,1
2023-04-02T05:03:15.413Z,1
2023-04-02T05:04:23.782Z,1
2023-04-02T05:05:32.139Z,1
2023-04-02T05:06:40.656Z,1
2023-04-02T05:07:49.009Z,1
2023-04-02T05:08:57.356Z,1
2023-04-02T05:10:05.929Z,1
2023-04-02T05:11:14.265Z,1
2023-04-02T05:12:22.613Z,1
2023-04-02T05:13:31.217Z,0.8
2023-04-02T05:14:39.543Z,0.8
2023-04-02T05:15:47.885Z,0.8
2023-04-02T05:16:56.436Z,0.8
2023-04-02T05:18:04.793Z,0.8
2023-04-02T05:19:13.120Z,0.8
2023-04-02T05:20:21.671Z,1.1
2023-04-02T05:21:30.009Z,1.1
2023-04-02T05:22:40.182Z,1.1
2023-04-02T05:23:46.927Z,1.5
2023-04-02T05:24:55.288Z,1.5
2023-04-02T05:26:03.621Z,1.5
2023-04-02T05:27:12.187Z,1.6
2023-04-02T05:28:20.577Z,1.6
2023-04-02T05:29:28.960Z,1.6
2023-04-02T05:30:37.467Z,1.4
2023-04-02T05:31:45.811Z,1.4
2023-04-02T05:32:54.179Z,1.4
2023-04-02T05:34:02.789Z,1.4
2023-04-02T05:35:11.116Z,1.4
2023-04-02T05:36:19.511Z,1.4
2023-04-02T05:37:28.024Z,1.3
2023-04-02T05:38:36.418Z,1.3
2023-04-02T05:39:44.785Z,1.3
2023-04-02T05:40:53.383Z,0.9
2023-04-02T05:42:01.728Z,0.9
2023-04-02T05:43:10.107Z,0.9
2023-04-02T05:44:18.669Z,0.6
2023-04-02T05:45:27.035Z,0.6
2023-04-02T05:46:35.396Z,0.6
2023-04-02T05:47:44.015Z,0.7
2023-04-02T05:48:52.324Z,0.7
2023-04-02T05:50:00.672Z,0.7
2023-04-02T05:51:09.226Z,0.7
2023-04-02T05:52:17.554Z,0.7
2023-04-02T05:53:25.911Z,0.7
2023-04-02T05:54:34.465Z,0.7
2023-04-02T05:55:42.798Z,0.7
2023-04-02T05:56:51.163Z,0.7
2023-04-02T05:58:14.064Z,1.2
2023-04-02T05:59:08.047Z,1.2
2023-04-02T06:00:16.411Z,1.2
2023-04-02T06:01:25.012Z,0.8
2023-04-02T06:02:33.400Z,0.8
2023-04-02T06:03:41.812Z,0.8
2023-04-02T06:04:50.270Z,1.2
2023-04-02T06:05:58.595Z,1.2
2023-04-02T06:07:06.943Z,1.2
2023-04-02T06:08:15.534Z,1.8
2023-04-02T06:09:23.861Z,1.8
2023-04-02T06:10:32.191Z,1.8
2023-04-02T06:11:40.749Z,4
2023-04-02T06:12:49.115Z,4
2023-04-02T06:13:57.462Z,4
2023-04-02T06:15:06.024Z,5.6
2023-04-02T06:16:14.381Z,5.6
2023-04-02T06:17:22.740Z,5.6
2023-04-02T06:18:31.257Z,2.1
2023-04-02T06:19:39.615Z,2.1
2023-04-02T06:20:47.974Z,2.1
2023-04-02T06:21:56.543Z,1.7
2023-04-02T06:23:04.904Z,1.7
2023-04-02T06:24:13.255Z,1.7
2023-04-02T06:25:21.805Z,1.5
2023-04-02T06:26:30.134Z,1.5
2023-04-02T06:27:38.482Z,1.5
2023-04-02T06:28:47.055Z,1.7
2023-04-02T06:29:55.382Z,1.7
2023-04-02T06:31:03.760Z,1.7
2023-04-02T06:32:12.304Z,1.8
2023-04-02T06:33:20.651Z,1.8
2023-04-02T06:34:28.968Z,1.8
2023-04-02T06:35:37.850Z,2
2023-04-02T06:36:45.892Z,2
2023-04-02T06:37:54.207Z,2
2023-04-02T06:39:02.782Z,2.4
2023-04-02T06:40:11.120Z,2.4
2023-04-02T06:41:19.532Z,2.4
2023-04-02T06:42:28.072Z,2.1
2023-04-02T06:43:36.535Z,2.1
2023-04-02T06:44:44.753Z,2.1
2023-04-02T06:45:53.307Z,1.6
2023-04-02T06:47:01.669Z,1.6
2023-04-02T06:48:10.070Z,1.6
2023-04-02T06:49:18.604Z,1.8
2023-04-02T06:50:27.041Z,1.8
2023-04-02T06:51:35.239Z,1.8
2023-04-02T06:52:43.803Z,1.8
2023-04-02T06:53:52.148Z,1.8
2023-04-02T06:55:00.517Z,1.8
2023-04-02T06:56:09.031Z,2.9
2023-04-02T06:57:17.416Z,2.9
2023-04-02T06:58:25.730Z,2.9
2023-04-02T06:59:34.288Z,1.3
2023-04-02T07:00:42.666Z,1.3
2023-04-02T07:01:51.065Z,1.3
2023-04-02T07:02:59.550Z,2.2
2023-04-02T07:04:07.878Z,2.2
2023-04-02T07:05:16.250Z,2.2
2023-04-02T07:06:24.813Z,0.9
2023-04-02T07:07:33.147Z,0.9
2023-04-02T07:08:41.503Z,0.9
2023-04-02T07:09:50.046Z,2
2023-04-02T07:10:58.394Z,2
2023-04-02T07:12:06.722Z,2
2023-04-02T07:13:15.284Z,1.8
2023-04-02T07:14:23.649Z,1.8
2023-04-02T07:15:31.967Z,1.8
2023-04-02T07:16:40.529Z,1.2
2023-04-02T07:17:48.940Z,1.2
2023-04-02T07:18:57.270Z,1.2
2023-04-02T07:20:05.811Z,1.7
2023-04-02T07:21:14.200Z,1.7
2023-04-02T07:22:22.518Z,1.7
2023-04-02T07:23:31.104Z,2.1
2023-04-02T07:24:39.485Z,2.1
2023-04-02T07:25:47.810Z,2.1
2023-04-02T07:26:56.377Z,1.9
2023-04-02T07:28:04.732Z,1.9
2023-04-02T07:29:13.065Z,1.9
2023-04-02T07:30:21.645Z,1.8
2023-04-02T07:31:30.044Z,1.8
2023-04-02T07:32:38.384Z,1.8
2023-04-02T07:33:46.916Z,35.700001
2023-04-02T07:34:55.264Z,35.700001
2023-04-02T07:36:03.661Z,35.700001
2023-04-02T07:37:12.206Z,1.4
2023-04-02T07:38:20.574Z,1.4
2023-04-02T07:39:28.888Z,1.4
2023-04-02T07:40:37.566Z,3.9
2023-04-02T07:41:49.136Z,3.9
2023-04-02T07:42:57.533Z,3.9
2023-04-02T07:44:06.113Z,1.3
2023-04-02T07:45:14.465Z,1.3
2023-04-02T07:46:22.908Z,1.3
2023-04-02T07:47:31.368Z,1.2
2023-04-02T07:48:39.713Z,1.2
2023-04-02T07:49:48.053Z,1.2
2023-04-02T07:50:56.642Z,1
2023-04-02T07:52:05.023Z,1
2023-04-02T07:53:13.372Z,1
2023-04-02T07:54:21.921Z,1.3
2023-04-02T07:55:30.260Z,1.3
2023-04-02T07:56:38.587Z,1.3
2023-04-02T07:57:47.167Z,3.3
2023-04-02T07:58:55.516Z,3.3
2023-04-02T08:00:03.843Z,3.3
2023-04-02T08:01:12.387Z,1
2023-04-02T08:02:20.830Z,1
2023-04-02T08:03:29.801Z,1
2023-04-02T08:04:38.292Z,1.6
2023-04-02T08:05:46.631Z,1.6
2023-04-02T08:06:54.989Z,1.6
2023-04-02T08:08:03.617Z,2.5
2023-04-02T08:09:11.916Z,2.5
2023-04-02T08:10:20.246Z,2.5
2023-04-02T08:11:30.548Z,0.9
2023-04-02T08:12:37.144Z,0.9
2023-04-02T08:13:45.515Z,0.9
2023-04-02T08:14:54.063Z,1
2023-04-02T08:16:02.418Z,1
2023-04-02T08:17:10.748Z,1
2023-04-02T08:18:19.360Z,1.2
2023-04-02T08:19:27.709Z,1.2
2023-04-02T08:20:36.066Z,1.2
2023-04-02T08:21:44.601Z,0.8
2023-04-02T08:22:52.949Z,0.8
2023-04-02T08:24:01.303Z,0.8
2023-04-02T08:25:09.877Z,2.3
2023-04-02T08:26:18.207Z,2.3
2023-04-02T08:27:26.524Z,2.3
2023-04-02T08:28:35.081Z,2.2
2023-04-02T08:29:43.408Z,2.2
2023-04-02T08:30:51.759Z,2.2
2023-04-02T08:32:00.312Z,1.7
2023-04-02T08:33:08.710Z,1.7
2023-04-02T08:34:17.030Z,1.7
2023-04-02T08:35:25.568Z,1.5
2023-04-02T08:36:33.920Z,1.5
2023-04-02T08:37:42.258Z,1.5
2023-04-02T08:38:50.808Z,1.7
2023-04-02T08:39:59.147Z,1.7
2023-04-02T08:41:07.506Z,1.7
2023-04-02T08:42:16.057Z,1.4
2023-04-02T08:43:24.410Z,1.4
2023-04-02T08:44:32.726Z,1.4
2023-04-02T08:45:41.441Z,1.6
2023-04-02T08:46:49.629Z,1.6
2023-04-02T08:47:58.008Z,1.6
2023-04-02T08:49:06.557Z,2.6
2023-04-02T08:50:14.907Z,2.6
2023-04-02T08:51:23.260Z,2.6
2023-04-02T08:52:31.796Z,2.3
2023-04-02T08:53:40.139Z,2.3
2023-04-02T08:54:48.474Z,2.3
2023-04-02T08:55:57.033Z,2.4
2023-04-02T08:57:05.397Z,2.4
2023-04-02T08:58:13.707Z,2.4
2023-04-02T08:59:22.275Z,1.6
2023-04-02T09:00:30.597Z,1.6
2023-04-02T09:01:38.969Z,1.6
2023-04-02T09:02:47.514Z,2.2
2023-04-02T09:03:55.833Z,2.2
2023-04-02T09:05:04.264Z,2.2
2023-04-02T09:06:13.454Z,2.2
2023-04-02T09:07:21.061Z,2.2
2023-04-02T09:08:29.401Z,2.2
2023-04-02T09:09:37.960Z,2.3
2023-04-02T09:10:46.295Z,2.3
2023-04-02T09:11:54.640Z,2.3
2023-04-02T09:13:03.214Z,1.9
2023-04-02T09:14:11.531Z,1.9
2023-04-02T09:15:19.861Z,1.9
2023-04-02T09:16:28.491Z,1.9
2023-04-02T09:17:46.670Z,1.9
2023-04-02T09:18:45.132Z,1.9
2023-04-02T09:19:53.663Z,2
2023-04-02T09:21:01.986Z,2
2023-04-02T09:22:10.343Z,2
2023-04-02T09:23:18.917Z,2.4
2023-04-02T09:24:27.264Z,2.4
2023-04-02T09:25:35.828Z,2.4
2023-04-02T09:26:44.172Z,2.3
2023-04-02T09:27:52.515Z,2.3
2023-04-02T09:29:00.913Z,2.3
2023-04-02T09:30:09.404Z,1.8
2023-04-02T09:31:17.749Z,1.8
2023-04-02T09:32:26.129Z,1.8
2023-04-02T09:33:34.634Z,2.1
2023-04-02T09:34:42.970Z,2.1
2023-04-02T09:35:51.358Z,2.1
2023-04-02T09:36:59.870Z,1.7
2023-04-02T09:38:08.188Z,1.7
2023-04-02T09:39:16.572Z,1.7
2023-04-02T09:40:25.126Z,2.5
2023-04-02T09:41:35.122Z,2.5
2023-04-02T09:42:41.813Z,2.5
2023-04-02T09:43:50.377Z,1.8
2023-04-02T09:44:58.756Z,1.8
2023-04-02T09:46:07.062Z,1.8
2023-04-02T09:47:15.617Z,1.9
2023-04-02T09:48:23.975Z,1.9
2023-04-02T09:49:32.302Z,1.9
2023-04-02T09:50:40.849Z,1.9
2023-04-02T09:51:49.186Z,1.9
2023-04-02T09:52:57.536Z,1.9
2023-04-02T09:54:06.131Z,2
2023-04-02T09:55:14.433Z,2
2023-04-02T09:56:22.797Z,2
2023-04-02T09:57:31.364Z,4.6
2023-04-02T09:58:39.681Z,4.6
2023-04-02T09:59:48.004Z,4.6
2023-04-02T10:00:56.579Z,4
2023-04-02T10:02:04.871Z,4
2023-04-02T10:03:13.215Z,4
2023-04-02T10:04:22.621Z,2.1
2023-04-02T10:06:38.425Z,2.1
2023-04-02T10:07:46.971Z,2.4
2023-04-02T10:08:55.344Z,2.4
2023-04-02T10:10:03.688Z,2.4
2023-04-02T10:11:12.237Z,1.7
2023-04-02T10:12:20.568Z,1.7
2023-04-02T10:13:28.909Z,1.7
2023-04-02T10:14:37.462Z,3.9
2023-04-02T10:15:45.794Z,3.9
2023-04-02T10:16:54.152Z,3.9
2023-04-02T10:18:02.745Z,2.6
2023-04-02T10:19:10.987Z,2.6
2023-04-02T10:20:19.365Z,2.6
2023-04-02T10:21:27.921Z,3.7
2023-04-02T10:22:36.246Z,3.7
2023-04-02T10:23:44.603Z,3.7
2023-04-02T10:24:53.167Z,6
2023-04-02T10:26:01.500Z,6
2023-04-02T10:27:10.021Z,6
2023-04-02T10:28:18.414Z,6.7
2023-04-02T10:29:26.749Z,6.7
2023-04-02T10:30:35.123Z,6.7
2023-04-02T10:31:43.622Z,6.8
2023-04-02T10:32:52.035Z,6.8
2023-04-02T10:34:00.322Z,6.8
2023-04-02T10:35:08.880Z,5.2
2023-04-02T10:36:17.205Z,5.2
2023-04-02T10:37:25.521Z,5.2
2023-04-02T10:38:34.086Z,7.4
2023-04-02T10:39:42.411Z,7.4
2023-04-02T10:40:50.745Z,7.4
2023-04-02T10:41:59.296Z,4.9
2023-04-02T10:43:07.630Z,4.9
2023-04-02T10:44:19.874Z,4.9
2023-04-02T10:45:24.545Z,7.5
2023-04-02T10:46:32.917Z,7.5
2023-04-02T10:47:41.261Z,7.5
2023-04-02T10:48:49.804Z,5.2
2023-04-02T10:49:58.089Z,5.2
2023-04-02T10:51:06.445Z,5.2
2023-04-02T10:52:14.980Z,6.4
2023-04-02T10:53:23.335Z,6.4
2023-04-02T10:54:31.649Z,6.4
2023-04-02T10:55:40.185Z,5.6
2023-04-02T10:56:52.016Z,5.6
2023-04-02T10:57:56.863Z,5.6
2023-04-02T10:59:05.433Z,5.3
2023-04-02T11:00:13.757Z,5.3
2023-04-02T11:01:22.102Z,5.3
2023-04-02T11:02:30.683Z,4.7
2023-04-02T11:03:41.440Z,4.7
2023-04-02T11:04:49.613Z,4.7
2023-04-02T11:05:58.135Z,4.6
2023-04-02T11:07:13.571Z,4.6
2023-04-02T11:08:14.835Z,4.6
2023-04-02T11:09:23.381Z,4.6
2023-04-02T11:10:31.709Z,4.6
2023-04-02T11:11:40.075Z,4.6
2023-04-02T11:12:48.626Z,4.6
2023-04-02T11:13:56.962Z,4.6
2023-04-02T11:15:05.306Z,4.6
2023-04-02T11:16:13.873Z,5
2023-04-02T11:17:22.378Z,5
2023-04-02T11:18:30.637Z,5
2023-04-02T11:19:39.179Z,4.6
2023-04-02T11:20:47.538Z,4.6
2023-04-02T11:21:59.828Z,4.6
2023-04-02T11:23:04.379Z,4.8
2023-04-02T11:24:12.729Z,4.8
2023-04-02T11:25:21.109Z,4.8
2023-04-02T11:26:29.660Z,4.1
2023-04-02T11:27:37.969Z,4.1
2023-04-02T11:28:46.310Z,4.1
2023-04-02T11:29:54.864Z,4.4
2023-04-02T11:31:03.211Z,4.4
2023-04-02T11:32:11.542Z,4.4
2023-04-02T11:33:23.636Z,4.3
2023-04-02T11:34:28.429Z,4.3
2023-04-02T11:35:37.041Z,4.3
2023-04-02T11:36:45.357Z,2.9
2023-04-02T11:37:53.672Z,2.9
2023-04-02T11:39:10.932Z,2.9
2023-04-02T11:40:10.591Z,3
2023-04-02T11:41:18.891Z,3
2023-04-02T11:42:27.242Z,3
2023-04-02T11:43:35.958Z,3
2023-04-02T11:44:44.134Z,3
2023-04-02T11:45:53.267Z,3
2023-04-02T11:47:01.084Z,2.8
2023-04-02T11:48:09.364Z,2.8
2023-04-02T11:49:17.742Z,2.8
2023-04-02T11:50:26.283Z,3.1
2023-04-02T11:51:34.636Z,3.1
2023-04-02T11:52:42.995Z,3.1
2023-04-02T11:53:51.559Z,2.3
2023-04-02T11:54:59.870Z,2.3
2023-04-02T11:56:08.232Z,2.3
2023-04-02T11:57:17.453Z,2.2
2023-04-02T11:58:25.144Z,2.2
2023-04-02T11:59:33.501Z,2.2
2023-04-02T12:00:42.187Z,2.3
2023-04-02T12:01:50.556Z,2.3
2023-04-02T12:02:58.909Z,2.3
2023-04-02T12:04:07.442Z,2.4
2023-04-02T12:05:15.836Z,2.4
2023-04-02T12:06:24.116Z,2.4
2023-04-02T12:07:32.675Z,2.5
2023-04-02T12:08:50.806Z,2.5
2023-04-02T12:09:49.356Z,2.5
2023-04-02T12:10:57.920Z,2.6
2023-04-02T12:12:06.262Z,2.6
2023-04-02T12:13:14.618Z,2.6
2023-04-02T12:14:23.175Z,2.4
2023-04-02T12:15:31.546Z,2.4
2023-04-02T12:16:39.916Z,2.4
2023-04-02T12:17:48.486Z,3.1
2023-04-02T12:18:56.851Z,3.1
2023-04-02T12:20:05.865Z,3.1
2023-04-02T12:21:13.717Z,2.6
2023-04-02T12:22:22.067Z,2.6
2023-04-02T12:23:30.394Z,2.6
2023-04-02T12:24:38.957Z,2.7
2023-04-02T12:25:47.285Z,2.7
2023-04-02T12:26:55.626Z,2.7
2023-04-02T12:28:04.186Z,2.3
2023-04-02T12:29:12.534Z,2.3
2023-04-02T12:30:20.886Z,2.3
2023-04-02T12:31:29.424Z,2.3
2023-04-02T12:32:37.759Z,2.3
2023-04-02T12:33:46.103Z,2.3
2023-04-02T12:34:54.652Z,2.4
2023-04-02T12:36:03.028Z,2.4
2023-04-02T12:37:11.345Z,2.4
2023-04-02T12:38:19.886Z,2.7
2023-04-02T12:39:28.597Z,2.7
2023-04-02T12:40:36.691Z,2.7
2023-04-02T12:41:45.099Z,2.6
2023-04-02T12:42:53.422Z,2.6
2023-04-02T12:44:01.762Z,2.6
2023-04-02T12:45:10.291Z,2.5
2023-04-02T12:46:18.669Z,2.5
2023-04-02T12:47:26.995Z,2.5
2023-04-02T12:48:35.532Z,2.3
2023-04-02T12:49:43.867Z,2.3
2023-04-02T12:50:52.208Z,2.3
2023-04-02T12:52:00.763Z,2.4
2023-04-02T12:53:09.089Z,2.4
2023-04-02T12:54:17.457Z,2.4
2023-04-02T12:55:25.981Z,2.1
2023-04-02T12:56:34.334Z,2.1
2023-04-02T12:57:42.795Z,2.1
2023-04-02T12:58:51.189Z,2.7
2023-04-02T12:59:59.529Z,2.7
2023-04-02T13:01:07.870Z,2.7
2023-04-02T13:02:16.404Z,3.1
2023-04-02T13:03:25.531Z,3.1
2023-04-02T13:04:33.101Z,3.1
2023-04-02T13:05:41.656Z,2.9
2023-04-02T13:06:49.993Z,2.9
2023-04-02T13:07:58.321Z,2.9
2023-04-02T13:09:06.903Z,2.8
2023-04-02T13:10:15.212Z,2.8
2023-04-02T13:11:23.559Z,2.8
2023-04-02T13:12:32.131Z,3.3
2023-04-02T13:13:40.453Z,3.3
2023-04-02T13:14:48.789Z,3.3
2023-04-02T13:15:57.361Z,2.9
2023-04-02T13:17:05.653Z,2.9
2023-04-02T13:18:14.019Z,2.9
2023-04-02T13:19:22.584Z,3.1
2023-04-02T13:20:30.901Z,3.1
2023-04-02T13:21:39.256Z,3.1
2023-04-02T13:22:47.810Z,3.6
2023-04-02T13:23:56.140Z,3.6
2023-04-02T13:25:04.484Z,3.6
2023-04-02T13:26:13.058Z,4
2023-04-02T13:27:21.370Z,4
2023-04-02T13:28:29.741Z,4
2023-04-02T13:29:38.269Z,3.4
2023-04-02T13:30:46.610Z,3.4
2023-04-02T13:31:55.067Z,3.4
2023-04-02T13:33:03.565Z,3.3
2023-04-02T13:34:11.841Z,3.3
2023-04-02T13:35:20.202Z,3.3
2023-04-02T13:36:28.759Z,4.7
2023-04-02T13:37:37.113Z,4.7
2023-04-02T13:38:45.431Z,4.7
2023-04-02T13:39:53.975Z,3.7
2023-04-02T13:41:02.338Z,3.7
2023-04-02T13:42:10.666Z,3.7
2023-04-02T13:43:19.216Z,4
2023-04-02T13:44:27.578Z,4
2023-04-02T13:45:35.901Z,4
2023-04-02T13:46:44.434Z,4.1
2023-04-02T13:47:52.841Z,4.1
2023-04-02T13:49:01.135Z,4.1
2023-04-02T13:50:09.673Z,3.8
2023-04-02T13:51:18.031Z,3.8
2023-04-02T13:52:26.348Z,3.8
2023-04-02T13:53:34.913Z,3.4
2023-04-02T13:54:43.272Z,3.4
2023-04-02T13:55:51.581Z,3.4
2023-04-02T13:57:00.158Z,4.2
2023-04-02T13:58:08.447Z,4.2
2023-04-02T13:59:16.790Z,4.2
2023-04-02T14:00:25.363Z,3.8
2023-04-02T14:01:33.721Z,3.8
2023-04-02T14:02:42.016Z,3.8
2023-04-02T14:03:50.569Z,3.7
2023-04-02T14:04:58.918Z,3.7
2023-04-02T14:06:07.256Z,3.7
2023-04-02T14:07:15.814Z,5.6
2023-04-02T14:08:24.170Z,5.6
2023-04-02T14:09:32.512Z,5.6
2023-04-02T14:10:41.064Z,3.5
2023-04-02T14:11:49.441Z,3.5
2023-04-02T14:12:57.788Z,3.5
2023-04-02T14:14:06.374Z,12.1
2023-04-02T14:15:14.727Z,12.1
2023-04-02T14:16:23.177Z,12.1
2023-04-02T14:17:31.650Z,13
2023-04-02T14:18:40.001Z,13
2023-04-02T14:19:48.425Z,13
2023-04-02T14:20:56.999Z,4.6
2023-04-02T14:22:05.335Z,4.6
2023-04-02T14:23:13.746Z,4.6
2023-04-02T14:24:22.251Z,4.5
2023-04-02T14:25:30.646Z,4.5
2023-04-02T14:26:38.966Z,4.5
2023-04-02T14:27:47.515Z,3.8
2023-04-02T14:28:55.891Z,3.8
2023-04-02T14:30:04.259Z,3.8
2023-04-02T14:31:12.854Z,3.6
2023-04-02T14:32:21.168Z,3.6
2023-04-02T14:33:29.530Z,3.6
2023-04-02T14:34:38.080Z,3.8
2023-04-02T14:35:46.468Z,3.8
2023-04-02T14:36:54.784Z,3.8
2023-04-02T14:38:03.379Z,3.8
2023-04-02T14:39:11.704Z,3.8
2023-04-02T14:40:20.041Z,3.8
2023-04-02T14:41:28.613Z,3.8
2023-04-02T14:42:36.989Z,3.8
2023-04-02T14:43:45.352Z,3.8
2023-04-02T14:44:53.926Z,4.2
2023-04-02T14:46:02.333Z,4.2
2023-04-02T14:47:10.619Z,4.2
2023-04-02T14:48:19.188Z,6.9
2023-04-02T14:49:27.507Z,6.9
2023-04-02T14:50:35.965Z,6.9
2023-04-02T14:51:44.389Z,4.8
2023-04-02T14:52:52.741Z,4.8
2023-04-02T14:54:01.081Z,4.8
2023-04-02T14:55:09.621Z,4.1
2023-04-02T14:56:17.978Z,4.1
2023-04-02T14:57:26.370Z,4.1
2023-04-02T14:58:34.862Z,6.2
2023-04-02T14:59:43.201Z,6.2
2023-04-02T15:00:51.544Z,6.2
2023-04-02T15:02:00.152Z,4.7
2023-04-02T15:03:08.450Z,4.7
2023-04-02T15:04:16.779Z,4.7
2023-04-02T15:05:25.287Z,3.8
2023-04-02T15:06:33.642Z,3.8
2023-04-02T15:40:01.656Z,0
2023-04-02T15:41:09.957Z,0
2023-04-02T15:42:18.284Z,0
2023-04-02T15:43:26.838Z,4.4
2023-04-02T15:44:35.164Z,4.4
2023-04-02T15:45:43.557Z,4.4
2023-04-02T15:46:52.064Z,4.1
2023-04-02T15:48:00.442Z,4.1
2023-04-02T15:49:08.712Z,4.1
2023-04-02T15:50:17.261Z,3.9
2023-04-02T15:51:25.583Z,3.9
2023-04-02T15:52:33.918Z,3.9
2023-04-02T15:53:42.468Z,3.6
2023-04-02T15:54:50.798Z,3.6
2023-04-02T15:55:59.143Z,3.6
2023-04-02T15:57:07.686Z,4
2023-04-02T15:58:16.013Z,4
2023-04-02T15:59:24.361Z,4
2023-04-02T16:00:32.974Z,3.6
2023-04-02T16:01:41.313Z,3.6
2023-04-02T16:02:49.585Z,3.6
2023-04-02T16:03:58.177Z,3.3
2023-04-02T16:05:06.475Z,3.3
2023-04-02T16:06:14.784Z,3.3
2023-04-02T16:07:23.347Z,3.2
2023-04-02T16:08:31.706Z,3.2
2023-04-02T16:09:40.029Z,3.2
2023-04-02T16:10:48.706Z,3.1
2023-04-02T16:11:56.929Z,3.1
2023-04-02T16:13:05.247Z,3.1
2023-04-02T16:14:13.792Z,3
2023-04-02T16:15:22.112Z,3
2023-04-02T16:16:30.439Z,3
2023-04-02T16:17:39.008Z,3.3
2023-04-02T16:18:47.348Z,3.3
2023-04-02T16:19:55.753Z,3.3
2023-04-02T16:21:04.247Z,3.2
2023-04-02T16:22:12.639Z,3.2